Terminal Aerodrome Forecast
Issued by NWS

Home | Current Version | Previous Version | Text Only | Print | Product List | Glossary On
Versions: 1 2 3 4 5 6 7 8 9 10 11 12 13 14 15 16 17 18 19 20 21 22 23 24 25 26 27 28 29 30 31 32 33 34 35 36 37 38 39 40 41 42 43 44 45 46 47 48 49 50
750
FTUS45 KCYS 241955 AAA
TAFRWL
TAF AMD
KRWL 241955Z 2420/2518 35012KT P6SM SCT020 OVC050
      TEMPO 2420/2422 5SM -SN BKN020
     FM242200 34008KT 5SM -SN BKN015 OVC025=

USA.gov is the U.S. government's official web portal to all federal, state and local government web resources and services.